createdAt,value
2023-08-12T00:02:18.649Z,2.10
2023-08-12T00:04:48.017Z,1.63
2023-08-12T00:07:15.066Z,1.30
2023-08-12T00:09:42.557Z,2.03
2023-08-12T00:12:09.623Z,1.60
2023-08-12T00:14:36.739Z,2.20
2023-08-12T00:17:03.900Z,1.63
2023-08-12T00:19:30.934Z,1.77
2023-08-12T00:21:57.982Z,2.10
2023-08-12T00:24:24.991Z,1.77
2023-08-12T00:26:52.397Z,1.77
2023-08-12T00:29:19.496Z,1.87
2023-08-12T00:31:46.526Z,1.17
2023-08-12T00:34:13.638Z,1.93
2023-08-12T00:36:40.692Z,2.23
2023-08-12T00:39:07.838Z,2.13
2023-08-12T00:41:34.922Z,1.50
2023-08-12T00:44:01.928Z,1.73
2023-08-12T00:46:29.403Z,1.90
2023-08-12T00:48:56.589Z,1.60
2023-08-12T00:51:23.800Z,2.73
2023-08-12T00:53:52.543Z,2.30
2023-08-12T00:56:22.247Z,1.97
2023-08-12T00:58:49.878Z,1.70
2023-08-12T01:01:19.139Z,1.60
2023-08-12T01:03:46.735Z,1.30
2023-08-12T01:06:14.449Z,1.63
2023-08-12T01:08:41.574Z,1.93
2023-08-12T01:12:05.781Z,2.37
2023-08-12T01:14:46.947Z,2.00
2023-08-12T01:17:16.987Z,1.73
2023-08-12T01:19:46.219Z,1.40
2023-08-12T01:22:14.201Z,2.03
2023-08-12T01:24:43.832Z,2.13
2023-08-12T01:27:15.578Z,1.47
2023-08-12T01:29:46.776Z,1.90
2023-08-12T01:32:40.328Z,1.63
2023-08-12T01:35:18.659Z,1.80
2023-08-12T01:37:47.230Z,1.80
2023-08-12T01:40:18.088Z,2.13
2023-08-12T01:42:46.457Z,1.60
2023-08-12T01:45:13.523Z,1.93
2023-08-12T01:47:45.706Z,2.13
2023-08-12T01:50:12.909Z,1.70
2023-08-12T01:52:39.953Z,1.97
2023-08-12T01:55:07.336Z,1.97
2023-08-12T01:57:34.425Z,1.93
2023-08-12T02:00:03.636Z,2.37
2023-08-12T02:02:30.799Z,2.43
2023-08-12T02:04:57.975Z,1.90
2023-08-12T02:07:24.985Z,1.70
2023-08-12T02:09:52.018Z,1.80
2023-08-12T02:12:19.053Z,1.97
2023-08-12T02:14:46.148Z,1.97
2023-08-12T02:17:13.396Z,2.50
2023-08-12T02:19:40.688Z,1.90
2023-08-12T02:22:07.771Z,1.90
2023-08-12T02:24:34.846Z,1.90
2023-08-12T02:27:01.873Z,1.93
2023-08-12T02:29:28.939Z,1.93
2023-08-12T02:31:55.980Z,1.60
2023-08-12T02:34:23.100Z,2.17
2023-08-12T02:36:50.115Z,1.47
2023-08-12T02:39:17.842Z,2.17
2023-08-12T02:41:44.924Z,1.57
2023-08-12T02:44:11.900Z,1.50
2023-08-12T02:46:38.956Z,2.23
2023-08-12T02:49:06.064Z,1.77
2023-08-12T02:51:33.063Z,2.00
2023-08-12T02:54:00.211Z,2.20
2023-08-12T02:56:27.267Z,1.83
2023-08-12T02:58:54.335Z,1.97
2023-08-12T03:01:23.218Z,2.00
2023-08-12T03:03:50.272Z,1.50
2023-08-12T03:06:17.637Z,1.70
2023-08-12T03:08:44.677Z,1.80
2023-08-12T03:11:11.731Z,2.60
2023-08-12T03:13:38.713Z,1.70
2023-08-12T03:16:05.847Z,2.10
2023-08-12T03:18:33.327Z,1.67
2023-08-12T03:21:00.356Z,1.93
2023-08-12T03:23:27.800Z,1.37
2023-08-12T03:25:54.793Z,1.53
2023-08-12T03:28:21.897Z,1.73
2023-08-12T03:30:53.532Z,1.83
2023-08-12T03:33:20.977Z,2.43
2023-08-12T03:35:49.324Z,2.10
2023-08-12T03:38:16.997Z,1.47
2023-08-12T03:40:44.519Z,2.13
2023-08-12T03:43:11.731Z,1.47
2023-08-12T03:45:46.294Z,1.53
2023-08-12T03:48:13.513Z,2.10
2023-08-12T03:50:43.443Z,1.43
2023-08-12T03:53:10.621Z,1.70
2023-08-12T03:55:37.611Z,1.90
2023-08-12T03:58:05.270Z,2.73
2023-08-12T04:00:32.471Z,1.97
2023-08-12T04:02:59.722Z,2.00
2023-08-12T04:05:27.016Z,1.40
2023-08-12T04:07:54.211Z,2.43
2023-08-12T04:10:21.318Z,1.97
2023-08-12T04:12:48.417Z,2.47
2023-08-12T04:15:15.569Z,1.80
2023-08-12T04:17:42.895Z,2.50
2023-08-12T04:20:17.403Z,2.17
2023-08-12T04:22:50.163Z,2.30
2023-08-12T04:25:18.365Z,2.50
2023-08-12T04:27:49.661Z,2.40
2023-08-12T04:30:20.568Z,1.87
2023-08-12T04:32:47.731Z,1.93
2023-08-12T04:35:14.921Z,2.50
2023-08-12T04:37:42.121Z,2.00
2023-08-12T04:40:10.223Z,2.70
2023-08-12T04:42:37.711Z,2.90
2023-08-12T04:45:08.634Z,1.60
2023-08-12T04:47:35.766Z,1.60
2023-08-12T04:50:03.765Z,2.13
2023-08-12T04:52:30.824Z,1.97
2023-08-12T04:54:58.001Z,2.43
2023-08-12T04:57:25.076Z,2.50
2023-08-12T04:59:56.471Z,1.70
2023-08-12T05:02:23.900Z,1.30
2023-08-12T05:04:52.932Z,1.80
2023-08-12T05:07:20.253Z,1.50
2023-08-12T05:09:47.558Z,1.70
2023-08-12T05:12:17.746Z,1.93
2023-08-12T05:14:48.575Z,2.10
2023-08-12T05:17:15.680Z,1.90
2023-08-12T05:19:42.723Z,1.67
2023-08-12T05:22:10.274Z,1.73
2023-08-12T05:24:37.611Z,1.70
2023-08-12T05:27:05.517Z,1.97
2023-08-12T05:29:32.840Z,1.43
2023-08-12T05:31:59.954Z,1.60
2023-08-12T05:34:28.253Z,1.70
2023-08-12T05:36:57.625Z,2.10
2023-08-12T05:39:24.721Z,1.83
2023-08-12T05:41:53.623Z,1.63
2023-08-12T05:44:20.761Z,2.00
2023-08-12T05:46:47.757Z,1.67
2023-08-12T05:51:07.401Z,1.80
2023-08-12T06:01:58.837Z,2.13
2023-08-12T06:04:26.079Z,1.63
2023-08-12T06:06:53.293Z,1.50
2023-08-12T06:09:20.497Z,1.50
2023-08-12T06:11:47.467Z,1.60
2023-08-12T06:14:14.694Z,1.93
2023-08-12T06:16:41.987Z,2.00
2023-08-12T06:19:09.541Z,1.60
2023-08-12T06:21:36.582Z,1.80
2023-08-12T06:24:03.853Z,1.53
2023-08-12T06:26:30.886Z,1.57
2023-08-12T06:28:57.903Z,1.60
2023-08-12T06:31:24.955Z,1.73
2023-08-12T06:33:52.163Z,1.47
2023-08-12T06:36:19.185Z,1.70
2023-08-12T06:38:46.213Z,2.00
2023-08-12T06:41:13.207Z,1.77
2023-08-12T06:43:40.190Z,1.60
2023-08-12T06:46:07.296Z,2.03
2023-08-12T06:48:34.494Z,1.83
2023-08-12T06:51:05.224Z,1.73
2023-08-12T06:53:32.378Z,1.70
2023-08-12T06:55:59.528Z,1.63
2023-08-12T06:58:26.544Z,1.57
2023-08-12T07:00:54.448Z,2.00
2023-08-12T07:03:21.796Z,1.73
2023-08-12T07:05:48.910Z,1.50
2023-08-12T07:08:15.977Z,2.00
2023-08-12T07:10:45.735Z,1.57
2023-08-12T07:13:12.798Z,1.53
2023-08-12T07:15:39.908Z,1.53
2023-08-12T07:18:07.113Z,1.43
2023-08-12T07:20:34.213Z,1.77
2023-08-12T07:23:04.351Z,1.30
2023-08-12T07:25:31.553Z,1.57
2023-08-12T07:27:59.865Z,1.43
2023-08-12T07:30:27.078Z,2.00
2023-08-12T07:32:54.295Z,1.37
2023-08-12T07:35:35.611Z,1.70
2023-08-12T07:38:02.976Z,1.63
2023-08-12T07:40:32.827Z,1.40
2023-08-12T07:43:00.077Z,1.27
2023-08-12T07:45:27.392Z,1.73
2023-08-12T07:47:55.126Z,1.73
2023-08-12T07:50:22.493Z,1.47
2023-08-12T07:52:49.731Z,1.70
2023-08-12T07:55:17.403Z,1.93
2023-08-12T07:57:45.904Z,1.47
2023-08-12T08:00:13.634Z,1.97
2023-08-12T08:02:41.267Z,2.20
2023-08-12T08:05:09.244Z,1.47
2023-08-12T08:07:36.528Z,1.30
2023-08-12T08:10:04.172Z,1.70
2023-08-12T08:12:31.220Z,1.70
2023-08-12T08:14:58.267Z,1.10
2023-08-12T08:17:28.075Z,1.60
2023-08-12T08:19:55.130Z,1.10
2023-08-12T08:22:22.156Z,1.50
2023-08-12T08:24:49.132Z,1.57
2023-08-12T08:27:16.191Z,1.60
2023-08-12T08:29:43.262Z,1.70
2023-08-12T08:32:11.831Z,1.80
2023-08-12T08:34:39.072Z,1.40
2023-08-12T08:37:06.279Z,2.10
2023-08-12T08:39:33.805Z,1.67
2023-08-12T08:42:01.273Z,1.30
2023-08-12T08:44:36.400Z,1.40
2023-08-12T08:47:04.639Z,1.13
2023-08-12T08:49:33.258Z,1.60
2023-08-12T08:52:01.576Z,1.30
2023-08-12T08:54:29.470Z,1.50
2023-08-12T08:57:00.441Z,1.70
2023-08-12T08:59:37.544Z,1.23
2023-08-12T09:02:06.723Z,1.45
2023-08-12T09:04:35.187Z,1.30
2023-08-12T09:07:03.156Z,1.33
2023-08-12T09:09:30.413Z,1.45
2023-08-12T09:11:57.712Z,1.60
2023-08-12T09:14:24.975Z,1.70
2023-08-12T09:16:52.059Z,1.20
2023-08-12T09:19:19.311Z,1.48
2023-08-12T09:21:54.938Z,1.35
2023-08-12T09:24:26.775Z,1.70
2023-08-12T09:26:56.064Z,1.20
2023-08-12T09:29:34.704Z,1.05
2023-08-12T09:32:16.461Z,1.38
2023-08-12T09:34:52.426Z,1.33
2023-08-12T09:37:23.116Z,1.27
2023-08-12T09:40:01.408Z,1.57
2023-08-12T09:42:29.803Z,1.53
2023-08-12T09:44:58.477Z,1.77
2023-08-12T09:47:28.530Z,1.50
2023-08-12T09:57:07.599Z,1.33
2023-08-12T09:59:56.139Z,1.90
2023-08-12T10:02:32.204Z,1.50
2023-08-12T10:05:03.555Z,1.30
2023-08-12T10:07:31.309Z,1.27
2023-08-12T10:09:59.423Z,1.53
2023-08-12T10:12:37.193Z,0.90
2023-08-12T10:15:16.184Z,0.80
2023-08-12T10:17:49.270Z,1.20
2023-08-12T10:20:28.964Z,1.27
2023-08-12T10:23:08.228Z,0.97
2023-08-12T10:25:39.218Z,1.03
2023-08-12T10:28:08.904Z,1.27
2023-08-12T10:30:37.094Z,1.43
2023-08-12T10:33:18.263Z,1.20
2023-08-12T10:36:00.432Z,1.20
2023-08-12T10:38:28.129Z,1.70
2023-08-12T10:41:17.041Z,1.53
2023-08-12T10:44:04.677Z,1.60
2023-08-12T10:46:37.345Z,1.57
2023-08-12T10:49:05.143Z,1.77
2023-08-12T10:51:54.097Z,1.00
2023-08-12T10:54:31.671Z,2.80
2023-08-12T10:57:05.437Z,1.80
2023-08-12T10:59:47.921Z,1.17
2023-08-12T11:02:35.222Z,1.13
2023-08-12T11:05:11.808Z,0.93
2023-08-12T11:07:42.543Z,1.23
2023-08-12T11:10:16.700Z,1.27
2023-08-12T11:12:54.196Z,1.00
2023-08-12T11:15:33.538Z,1.13
2023-08-12T11:18:04.908Z,1.37
2023-08-12T11:20:32.770Z,1.20
2023-08-12T11:23:01.326Z,1.47
2023-08-12T11:25:31.956Z,1.30
2023-08-12T11:27:59.899Z,1.50
2023-08-12T11:30:29.588Z,1.50
2023-08-12T11:32:59.854Z,1.27
2023-08-12T11:35:27.472Z,0.93
2023-08-12T11:37:59.268Z,1.23
2023-08-12T11:40:28.554Z,1.23
2023-08-12T11:42:56.449Z,1.47
2023-08-12T11:45:27.099Z,1.30
2023-08-12T11:47:55.938Z,0.93
2023-08-12T11:50:27.420Z,1.50
2023-08-12T11:52:57.323Z,1.40
2023-08-12T11:55:25.900Z,1.10
2023-08-12T11:57:53.903Z,1.27
2023-08-12T12:00:21.726Z,0.70
2023-08-12T12:02:57.342Z,1.37
2023-08-12T12:05:33.483Z,1.50
2023-08-12T12:08:01.004Z,1.40
2023-08-12T12:10:35.445Z,1.37
2023-08-12T12:13:05.644Z,1.23
2023-08-12T12:15:40.658Z,1.07
2023-08-12T12:18:14.862Z,1.00
2023-08-12T12:20:59.131Z,0.90
2023-08-12T12:23:30.423Z,1.10
2023-08-12T12:26:03.379Z,1.40
2023-08-12T12:28:32.776Z,1.37
2023-08-12T12:30:59.937Z,1.40
2023-08-12T12:33:27.022Z,0.80
2023-08-12T12:35:58.185Z,1.03
2023-08-12T12:38:27.765Z,1.17
2023-08-12T12:40:54.890Z,1.37
2023-08-12T12:43:22.135Z,0.80
2023-08-12T12:45:49.237Z,1.50
2023-08-12T12:48:16.342Z,1.00
2023-08-12T12:50:43.376Z,1.23
2023-08-12T12:53:10.451Z,1.50
2023-08-12T12:55:37.726Z,0.83
2023-08-12T12:58:05.144Z,1.17
2023-08-12T13:00:32.124Z,0.77
2023-08-12T13:02:59.433Z,1.27
2023-08-12T13:05:26.911Z,0.93
2023-08-12T13:07:54.101Z,1.37
2023-08-12T13:10:21.206Z,0.83
2023-08-12T13:12:49.515Z,0.97
2023-08-12T13:15:16.889Z,1.03
2023-08-12T13:17:44.329Z,0.93
2023-08-12T13:20:12.713Z,0.70
2023-08-12T13:22:39.827Z,1.00
2023-08-12T13:25:07.695Z,1.10
2023-08-12T13:27:35.097Z,1.00
2023-08-12T13:30:02.605Z,0.90
2023-08-12T13:40:40.927Z,1.20
2023-08-12T13:43:11.386Z,0.80
2023-08-12T13:45:38.566Z,1.33
2023-08-12T13:48:06.281Z,1.40
2023-08-12T13:50:36.909Z,1.20
2023-08-12T13:53:04.244Z,1.17
2023-08-12T13:55:31.365Z,0.80
2023-08-12T13:58:16.809Z,1.30
2023-08-12T14:00:44.289Z,1.10
2023-08-12T14:03:11.809Z,1.10
2023-08-12T14:05:38.980Z,1.20
2023-08-12T14:08:07.035Z,1.10
2023-08-12T14:10:34.154Z,1.47
2023-08-12T14:13:07.822Z,1.10
2023-08-12T14:15:36.038Z,1.27
2023-08-12T14:18:03.452Z,0.80
2023-08-12T14:20:30.560Z,1.27
2023-08-12T14:22:58.448Z,1.03
2023-08-12T14:25:25.536Z,0.80
2023-08-12T14:27:52.748Z,1.40
2023-08-12T14:31:57.024Z,1.50
2023-08-12T14:45:00.414Z,1.20
2023-08-12T14:47:37.683Z,1.33
2023-08-12T14:50:05.579Z,0.90
2023-08-12T14:52:33.015Z,1.20
2023-08-12T14:55:00.199Z,1.13
2023-08-12T14:57:28.666Z,1.07
2023-08-12T14:59:55.773Z,1.00
2023-08-12T15:02:26.394Z,0.90
2023-08-12T15:04:54.897Z,1.13
2023-08-12T15:07:23.190Z,1.30
2023-08-12T15:09:50.352Z,1.23
2023-08-12T15:12:17.430Z,1.30
2023-08-12T15:14:44.474Z,0.97
2023-08-12T15:17:12.080Z,1.67
2023-08-12T15:19:39.572Z,0.90
2023-08-12T15:22:06.609Z,1.03
2023-08-12T15:24:33.752Z,1.00
2023-08-12T15:27:00.814Z,1.20
2023-08-12T15:29:28.326Z,1.10
2023-08-12T15:31:56.710Z,1.43
2023-08-12T15:34:24.576Z,1.00
2023-08-12T15:36:52.761Z,1.40
2023-08-12T15:39:20.965Z,1.30
2023-08-12T15:41:48.427Z,1.17
2023-08-12T15:44:16.918Z,0.77
2023-08-12T15:46:44.694Z,1.00
2023-08-12T15:49:12.409Z,1.07
2023-08-12T15:51:42.814Z,1.93
2023-08-12T15:54:09.915Z,1.17
2023-08-12T15:56:38.293Z,1.10
2023-08-12T15:59:07.395Z,1.37
2023-08-12T16:01:36.448Z,1.90
2023-08-12T16:04:04.460Z,1.37
2023-08-12T16:06:32.138Z,1.10
2023-08-12T16:09:16.829Z,1.30
2023-08-12T16:11:46.237Z,1.17
2023-08-12T16:14:13.522Z,0.97
2023-08-12T16:16:41.082Z,1.27
2023-08-12T16:19:09.006Z,0.83
2023-08-12T16:21:36.799Z,1.27
2023-08-12T16:24:04.179Z,1.70
2023-08-12T16:26:31.695Z,2.07
2023-08-12T16:28:58.941Z,1.70
2023-08-12T16:31:26.564Z,1.27
2023-08-12T16:33:56.846Z,1.27
2023-08-12T16:36:24.372Z,0.90
2023-08-12T16:38:51.816Z,0.90
2023-08-12T16:41:21.741Z,2.10
2023-08-12T16:43:50.728Z,1.43
2023-08-12T16:46:18.206Z,1.03
2023-08-12T16:48:46.322Z,1.07
2023-08-12T16:51:16.036Z,1.00
2023-08-12T16:53:43.741Z,1.60
2023-08-12T16:56:11.458Z,1.37
2023-08-12T16:58:40.808Z,1.47
2023-08-12T17:01:09.584Z,1.00
2023-08-12T17:03:36.762Z,1.23
2023-08-12T17:06:07.457Z,1.00
2023-08-12T17:08:35.069Z,1.40
2023-08-12T17:11:09.088Z,1.50
2023-08-12T17:13:39.119Z,1.80
2023-08-12T17:16:10.112Z,1.43
2023-08-12T17:18:37.717Z,1.67
2023-08-12T17:21:05.301Z,1.00
2023-08-12T17:23:32.961Z,1.33
2023-08-12T17:26:00.488Z,1.23
2023-08-12T17:28:27.944Z,1.40
2023-08-12T17:30:55.627Z,1.67
2023-08-12T17:33:22.889Z,1.57
2023-08-12T17:35:50.512Z,1.03
2023-08-12T17:38:18.087Z,1.20
2023-08-12T17:40:51.200Z,1.33
2023-08-12T17:43:21.686Z,1.30
2023-08-12T17:45:49.278Z,1.80
2023-08-12T17:48:17.318Z,1.93
2023-08-12T17:50:44.923Z,1.20
2023-08-12T17:53:13.283Z,1.63
2023-08-12T17:55:41.102Z,1.80
2023-08-12T17:58:17.384Z,1.57
2023-08-12T18:00:44.977Z,1.40
2023-08-12T18:03:14.736Z,2.17
2023-08-12T18:05:42.455Z,2.40
2023-08-12T18:08:15.105Z,2.43
2023-08-12T18:10:42.273Z,1.90
2023-08-12T18:13:09.802Z,2.07
2023-08-12T18:15:40.008Z,1.90
2023-08-12T18:18:07.727Z,1.27
2023-08-12T18:20:41.071Z,1.73
2023-08-12T18:23:08.625Z,1.87
2023-08-12T18:25:46.533Z,1.70
2023-08-12T18:28:14.680Z,1.43
2023-08-12T18:30:49.562Z,1.80
2023-08-12T18:33:17.113Z,1.47
2023-08-12T18:35:47.870Z,1.50
2023-08-12T18:38:15.136Z,1.53
2023-08-12T18:40:42.302Z,2.13
2023-08-12T18:43:14.770Z,1.73
2023-08-12T18:45:43.641Z,1.73
2023-08-12T18:48:14.664Z,1.97
2023-08-12T18:50:44.752Z,1.70
2023-08-12T18:53:19.426Z,1.57
2023-08-12T18:55:48.155Z,2.00
2023-08-12T18:58:20.033Z,1.90
2023-08-12T19:00:48.856Z,2.07
2023-08-12T19:03:21.394Z,2.77
2023-08-12T19:05:49.396Z,2.17
2023-08-12T19:08:23.192Z,2.40
2023-08-12T19:11:11.068Z,2.43
2023-08-12T19:13:45.807Z,2.43
2023-08-12T19:16:13.354Z,1.70
2023-08-12T19:18:46.157Z,2.40
2023-08-12T19:21:13.825Z,2.17
2023-08-12T19:23:45.796Z,1.90
2023-08-12T19:26:13.498Z,2.63
2023-08-12T19:28:46.933Z,2.20
2023-08-12T19:31:21.198Z,2.43
2023-08-12T19:33:51.164Z,2.30
2023-08-12T19:36:21.467Z,2.00
2023-08-12T19:39:01.625Z,2.70
2023-08-12T19:41:40.246Z,2.43
2023-08-12T19:44:38.094Z,2.80
2023-08-12T19:47:16.292Z,2.73
2023-08-12T19:49:44.622Z,2.73
2023-08-12T19:52:26.690Z,2.17
2023-08-12T19:55:00.753Z,2.57
2023-08-12T19:57:40.420Z,2.37
2023-08-12T20:00:13.800Z,2.10
2023-08-12T20:02:48.213Z,2.00
2023-08-12T20:05:46.271Z,2.63
2023-08-12T20:08:13.746Z,2.60
2023-08-12T20:10:46.298Z,2.37
2023-08-12T20:13:13.930Z,2.80
2023-08-12T20:15:51.393Z,2.33
2023-08-12T20:18:19.362Z,2.70
2023-08-12T20:20:56.276Z,2.30
2023-08-12T20:23:35.206Z,2.33
2023-08-12T20:26:03.589Z,2.83
2023-08-12T20:28:38.605Z,2.47
2023-08-12T20:31:06.290Z,2.30
2023-08-12T20:33:36.355Z,2.53
2023-08-12T20:36:15.936Z,2.20
2023-08-12T20:38:46.922Z,1.70
2023-08-12T20:41:22.703Z,1.80
2023-08-12T20:44:00.651Z,2.53
2023-08-12T20:46:30.849Z,2.33
2023-08-12T20:49:00.511Z,2.33
2023-08-12T20:51:28.017Z,2.63
2023-08-12T20:53:55.506Z,2.43
2023-08-12T20:56:32.062Z,2.47
2023-08-12T20:59:07.817Z,2.30
2023-08-12T21:01:34.877Z,3.03
2023-08-12T21:04:34.819Z,2.50
2023-08-12T21:07:05.695Z,2.10
2023-08-12T21:09:33.983Z,2.67
2023-08-12T21:12:08.703Z,2.63
2023-08-12T21:14:38.238Z,2.53
2023-08-12T21:17:11.347Z,2.60
2023-08-12T21:19:38.502Z,2.60
2023-08-12T21:22:05.989Z,2.70
2023-08-12T21:24:37.710Z,2.60
2023-08-12T21:27:07.373Z,2.40
2023-08-12T21:29:37.131Z,2.20
2023-08-12T21:32:04.908Z,2.20
2023-08-12T21:34:35.052Z,2.47
2023-08-12T21:37:04.583Z,2.17
2023-08-12T21:39:31.613Z,2.50
2023-08-12T21:41:58.830Z,3.20
2023-08-12T21:44:29.387Z,4.60
2023-08-12T21:47:00.708Z,2.50
2023-08-12T21:49:27.877Z,1.77
2023-08-12T21:51:54.906Z,1.83
2023-08-12T21:54:29.745Z,2.53
2023-08-12T21:56:57.218Z,2.07
2023-08-12T21:59:29.083Z,2.00
2023-08-12T22:01:56.539Z,2.30
2023-08-12T22:04:26.290Z,2.87
2023-08-12T22:06:55.833Z,2.40
2023-08-12T22:09:22.903Z,2.17
2023-08-12T22:11:58.929Z,1.87
2023-08-12T22:14:26.555Z,2.67
2023-08-12T22:16:54.677Z,2.07
2023-08-12T22:19:21.692Z,2.17
2023-08-12T22:21:48.833Z,2.63
2023-08-12T22:24:17.083Z,2.87
2023-08-12T22:26:44.485Z,2.43
2023-08-12T22:29:15.416Z,2.33
2023-08-12T22:31:42.618Z,2.50
2023-08-12T22:34:11.413Z,2.37
2023-08-12T22:36:39.510Z,2.23
2023-08-12T22:39:06.857Z,2.17
2023-08-12T22:41:35.100Z,2.10
2023-08-12T22:44:02.431Z,2.90
2023-08-12T22:46:29.495Z,2.07
2023-08-12T22:48:56.650Z,2.50
2023-08-12T22:51:23.763Z,2.53
2023-08-12T22:53:50.807Z,1.90
2023-08-12T22:56:18.233Z,2.00
2023-08-12T22:58:46.610Z,2.90
2023-08-12T23:01:13.784Z,2.23
2023-08-12T23:03:41.080Z,1.50
2023-08-12T23:06:08.281Z,2.60
2023-08-12T23:08:35.347Z,2.70
2023-08-12T23:11:02.756Z,2.47
2023-08-12T23:13:29.919Z,2.27
2023-08-12T23:15:56.987Z,2.70
2023-08-12T23:18:23.967Z,2.07
2023-08-12T23:20:51.008Z,2.20
2023-08-12T23:23:18.047Z,2.17
2023-08-12T23:25:45.102Z,2.30
2023-08-12T23:28:12.547Z,2.27
2023-08-12T23:30:39.761Z,2.83
2023-08-12T23:33:06.825Z,1.87
2023-08-12T23:35:34.669Z,2.53
2023-08-12T23:38:01.704Z,1.77
2023-08-12T23:40:29.416Z,1.80
2023-08-12T23:42:56.479Z,1.53
2023-08-12T23:45:23.628Z,1.93
2023-08-12T23:47:50.806Z,1.70
2023-08-12T23:50:17.971Z,1.80
2023-08-12T23:52:45.152Z,2.07
2023-08-12T23:55:12.328Z,1.97
2023-08-12T23:57:39.517Z,2.10
